Time;durP1;ratioP1;P1;durP2;ratioP2;P2;SDS_P1;SDS_P2;PMS_P1;PMS_P2;Temp;Humidity;BMP_temperature;BMP_pressure;BME280_temperature;BME280_humidity;BME280_pressure;Samples;Min_cycle;Max_cycle;Signal;HPM_P1;HPM_P2
2022/07/04 00:00:40;;;;;;;4.95;3.40;;;24.80;61.00;;;;;;4975678;28;20027;-85
2022/07/04 00:03:06;;;;;;;4.93;3.00;;;24.80;61.00;;;;;;4974198;28;20062;-84
2022/07/04 00:05:32;;;;;;;4.60;3.10;;;24.80;61.00;;;;;;4958825;28;20031;-84
2022/07/04 00:07:58;;;;;;;4.57;3.40;;;24.80;61.00;;;;;;4975335;28;20099;-84
2022/07/04 00:10:24;;;;;;;4.22;2.78;;;24.80;61.00;;;;;;4974773;28;20491;-84
2022/07/04 00:12:50;;;;;;;5.57;3.28;;;24.80;61.00;;;;;;4974521;28;20039;-84
2022/07/04 00:15:16;;;;;;;4.50;3.50;;;24.80;61.00;;;;;;4974920;28;20062;-85
2022/07/04 00:17:43;;;;;;;4.65;2.70;;;24.80;61.00;;;;;;4974517;28;20030;-84
2022/07/04 00:20:10;;;;;;;3.95;2.90;;;24.80;61.00;;;;;;4974756;28;20475;-84
2022/07/04 00:22:37;;;;;;;3.92;2.97;;;24.80;61.00;;;;;;4973985;28;20077;-84
2022/07/04 00:25:03;;;;;;;4.53;3.05;;;24.80;61.10;;;;;;4973461;28;20049;-84
2022/07/04 00:27:29;;;;;;;5.15;3.15;;;24.80;61.00;;;;;;4957139;28;20065;-84
2022/07/04 00:29:55;;;;;;;4.50;3.22;;;24.70;61.00;;;;;;4957370;28;20480;-84
2022/07/04 00:32:21;;;;;;;5.05;3.53;;;24.70;61.00;;;;;;4974813;28;20066;-84
2022/07/04 00:34:47;;;;;;;4.40;3.10;;;24.70;61.00;;;;;;4973065;28;20062;-84
2022/07/04 00:37:13;;;;;;;4.15;2.75;;;24.80;61.00;;;;;;4972743;28;20053;-81
2022/07/04 00:39:39;;;;;;;6.68;3.47;;;24.80;61.00;;;;;;4957067;28;20530;-84
2022/07/04 00:42:05;;;;;;;3.72;2.78;;;24.70;61.00;;;;;;4973527;28;20121;-84
2022/07/04 00:44:35;;;;;;;4.63;3.00;;;24.80;61.10;;;;;;4974171;28;20058;-84
2022/07/04 00:47:01;;;;;;;4.78;3.10;;;24.70;61.00;;;;;;4956618;28;20034;-84
2022/07/04 00:49:26;;;;;;;5.13;3.22;;;24.70;61.00;;;;;;4974123;28;20030;-84
2022/07/04 00:51:52;;;;;;;4.88;3.08;;;24.70;61.00;;;;;;4972904;28;20034;-84
2022/07/04 00:54:18;;;;;;;4.35;2.80;;;24.70;61.00;;;;;;4973926;28;20069;-84
2022/07/04 00:56:45;;;;;;;4.57;3.00;;;24.70;61.00;;;;;;4973561;28;20026;-84
2022/07/04 00:59:11;;;;;;;4.35;3.00;;;24.70;61.10;;;;;;4972675;28;20019;-84
2022/07/04 01:01:38;;;;;;;5.13;3.05;;;24.70;61.00;;;;;;4972826;28;20023;-84
2022/07/04 01:04:05;;;;;;;4.18;2.90;;;24.70;61.00;;;;;;4972288;28;20035;-83
2022/07/04 01:06:31;;;;;;;4.70;2.80;;;24.70;61.00;;;;;;4973444;28;20027;-84
2022/07/04 01:08:57;;;;;;;4.35;2.85;;;24.70;61.00;;;;;;4972702;28;20090;-84
2022/07/04 01:11:23;;;;;;;4.00;3.00;;;24.70;61.10;;;;;;4956574;28;20446;-84
2022/07/04 01:13:49;;;;;;;4.55;2.78;;;24.70;61.00;;;;;;4973646;28;20031;-84
2022/07/04 01:16:15;;;;;;;4.32;3.03;;;24.70;61.10;;;;;;4973125;28;20039;-84
2022/07/04 01:18:41;;;;;;;7.30;3.13;;;24.70;61.70;;;;;;4973581;28;20041;-84
2022/07/04 01:21:08;;;;;;;4.15;2.85;;;24.70;61.10;;;;;;4973512;28;20019;-84
2022/07/04 01:23:40;;;;;;;4.30;2.92;;;24.70;61.00;;;;;;4973678;28;20487;-84
2022/07/04 01:26:07;;;;;;;4.15;2.83;;;24.80;61.00;;;;;;4971842;28;20372;-84
2022/07/04 01:28:34;;;;;;;4.55;2.90;;;24.80;61.10;;;;;;4973423;28;20034;-84
2022/07/04 01:31:00;;;;;;;4.75;3.03;;;24.80;61.00;;;;;;4988442;28;20035;-84
2022/07/04 01:33:26;;;;;;;4.03;2.70;;;24.80;61.00;;;;;;4988336;28;20085;-84
2022/07/04 01:35:53;;;;;;;4.88;2.60;;;24.80;61.00;;;;;;4972880;28;20082;-84
2022/07/04 01:38:19;;;;;;;3.97;2.60;;;24.80;61.00;;;;;;4956014;28;20121;-84
2022/07/04 01:40:45;;;;;;;4.95;3.00;;;24.80;61.00;;;;;;4973297;28;20118;-84
2022/07/04 01:43:11;;;;;;;4.00;2.88;;;24.80;61.00;;;;;;4973254;28;20471;-84
2022/07/04 01:45:37;;;;;;;4.20;2.83;;;24.80;61.00;;;;;;4971930;28;20033;-84
2022/07/04 01:48:13;;;;;;;3.83;2.67;;;24.80;61.00;;;;;;4972228;28;20046;-84
2022/07/04 01:50:39;;;;;;;4.22;2.97;;;24.80;61.00;;;;;;4972120;28;20093;-83
2022/07/04 01:53:05;;;;;;;3.97;2.78;;;24.80;61.00;;;;;;4956094;28;20121;-84
2022/07/04 01:55:31;;;;;;;3.95;2.58;;;24.80;61.00;;;;;;4972948;28;20105;-84
2022/07/04 01:57:57;;;;;;;3.63;2.38;;;24.80;61.00;;;;;;4972835;28;20426;-83
2022/07/04 02:03:08;;;;;;;3.85;2.67;;;24.80;61.00;;;;;;4971763;28;20054;-84
2022/07/04 02:05:36;;;;;;;4.53;2.83;;;24.80;61.10;;;;;;4972922;28;20471;-84
2022/07/04 02:08:03;;;;;;;4.25;2.38;;;24.80;61.10;;;;;;4973173;28;20471;-84
2022/07/04 02:10:29;;;;;;;4.00;2.58;;;24.70;61.00;;;;;;4973101;28;20031;-84
2022/07/04 02:13:01;;;;;;;3.67;2.30;;;24.70;61.00;;;;;;4971709;28;20097;-84
2022/07/04 02:15:28;;;;;;;5.05;2.72;;;24.70;61.00;;;;;;4973207;28;20041;-83
2022/07/04 02:17:56;;;;;;;3.30;2.60;;;24.70;61.00;;;;;;4975649;28;20130;-83
2022/07/04 02:20:22;;;;;;;4.10;2.80;;;24.70;61.10;;;;;;4976920;28;20031;-83
2022/07/04 02:22:48;;;;;;;3.63;2.63;;;24.70;61.10;;;;;;4975752;28;20084;-84
2022/07/04 02:25:13;;;;;;;4.72;2.67;;;24.80;61.20;;;;;;4975706;28;20035;-83
2022/07/04 02:27:39;;;;;;;3.63;2.50;;;24.70;61.10;;;;;;4976593;28;20041;-83
2022/07/04 02:30:06;;;;;;;3.70;2.60;;;24.70;61.10;;;;;;4976817;28;20122;-84
2022/07/04 02:32:32;;;;;;;3.80;2.65;;;24.70;61.10;;;;;;4976858;28;20077;-84
2022/07/04 02:34:58;;;;;;;4.57;2.45;;;24.70;61.10;;;;;;4976807;28;20030;-83
2022/07/04 02:37:23;;;;;;;4.18;2.80;;;24.70;61.10;;;;;;4975111;28;20034;-84
2022/07/04 02:39:49;;;;;;;3.67;2.60;;;24.70;61.10;;;;;;4975458;28;20026;-83
2022/07/04 02:42:15;;;;;;;3.58;2.60;;;24.70;61.10;;;;;;4975478;28;20031;-83
2022/07/04 02:44:41;;;;;;;3.47;2.55;;;24.70;61.10;;;;;;4976468;28;20066;-83
2022/07/04 02:47:07;;;;;;;3.65;2.65;;;24.70;61.20;;;;;;4958955;28;20038;-83
2022/07/04 02:49:33;;;;;;;6.25;2.83;;;24.70;61.10;;;;;;4976542;28;20030;-83
2022/07/04 02:51:58;;;;;;;4.28;2.90;;;24.70;61.10;;;;;;4975255;28;20506;-83
2022/07/04 02:54:24;;;;;;;3.60;2.60;;;24.70;61.10;;;;;;4976282;28;20030;-83
2022/07/04 02:56:50;;;;;;;3.70;2.55;;;24.70;61.20;;;;;;4976009;28;20027;-84
2022/07/04 02:59:16;;;;;;;4.28;2.60;;;24.70;61.20;;;;;;4976185;28;20031;-83
2022/07/04 03:01:42;;;;;;;3.10;2.40;;;24.70;61.10;;;;;;4975062;28;20623;-83
2022/07/04 03:04:07;;;;;;;4.07;2.75;;;24.80;61.10;;;;;;4975104;28;20045;-81
2022/07/04 03:06:33;;;;;;;4.47;2.50;;;24.80;61.10;;;;;;4974738;28;20034;-82
2022/07/04 03:08:59;;;;;;;3.72;2.47;;;24.80;61.10;;;;;;4975079;28;20495;-82
2022/07/04 03:11:25;;;;;;;4.18;2.35;;;24.70;61.00;;;;;;4974925;28;20073;-82
2022/07/04 03:13:50;;;;;;;4.35;2.28;;;24.80;61.10;;;;;;4976023;28;20062;-82
2022/07/04 03:16:16;;;;;;;3.97;2.58;;;24.70;61.00;;;;;;4975647;28;20565;-82
2022/07/04 03:18:42;;;;;;;5.07;3.00;;;24.80;61.10;;;;;;4975995;28;20034;-83
2022/07/04 03:21:08;;;;;;;3.38;2.50;;;24.80;61.00;;;;;;4974757;28;20031;-83
2022/07/04 03:23:34;;;;;;;3.75;2.72;;;24.80;61.00;;;;;;4974692;28;20030;-82
2022/07/04 03:26:00;;;;;;;3.28;2.45;;;24.80;61.00;;;;;;4975312;28;20062;-84
2022/07/04 03:28:26;;;;;;;3.63;2.70;;;24.80;61.10;;;;;;4974467;28;20031;-83
2022/07/04 03:30:52;;;;;;;4.00;2.42;;;24.80;61.10;;;;;;4974763;28;20031;-82
2022/07/04 03:33:18;;;;;;;3.70;2.15;;;24.80;61.00;;;;;;4974806;28;20027;-83
2022/07/04 03:35:44;;;;;;;3.95;2.35;;;24.70;61.10;;;;;;4974253;28;20683;-82
2022/07/04 03:38:09;;;;;;;3.17;2.13;;;24.70;61.10;;;;;;4975614;28;20038;-82
2022/07/04 03:40:35;;;;;;;3.67;2.80;;;24.70;61.10;;;;;;4975919;28;20026;-82
2022/07/04 03:43:02;;;;;;;3.20;2.45;;;24.70;61.20;;;;;;4975371;28;20038;-83
2022/07/04 03:45:29;;;;;;;3.92;2.40;;;24.70;61.20;;;;;;4975410;28;20023;-82
2022/07/04 03:47:56;;;;;;;3.63;2.65;;;24.70;61.20;;;;;;4974240;28;20069;-80
2022/07/04 03:50:22;;;;;;;5.93;2.67;;;24.70;61.70;;;;;;4975467;28;20037;-84
2022/07/04 03:52:48;;;;;;;4.53;2.65;;;24.70;61.20;;;;;;4975701;28;20038;-87
2022/07/04 03:55:14;;;;;;;3.95;2.65;;;24.70;61.20;;;;;;4974064;28;20062;-86
2022/07/04 03:57:40;;;;;;;3.95;2.50;;;24.70;61.10;;;;;;4974879;28;20403;-86
2022/07/04 04:00:07;;;;;;;3.22;2.22;;;24.70;61.20;;;;;;4975256;28;20033;-86
2022/07/04 04:02:38;;;;;;;4.00;2.38;;;24.70;61.10;;;;;;4974098;28;20023;-87
2022/07/04 04:07:49;;;;;;;3.28;2.17;;;24.70;61.20;;;;;;4974790;28;20035;-86
2022/07/04 04:10:15;;;;;;;4.35;2.75;;;24.70;61.20;;;;;;4975052;28;20088;-86
2022/07/04 04:12:41;;;;;;;4.10;2.58;;;24.70;61.30;;;;;;4973937;28;20038;-86
2022/07/04 04:15:07;;;;;;;3.35;2.55;;;24.70;61.20;;;;;;4973450;28;20039;-86
2022/07/04 04:17:33;;;;;;;3.50;2.28;;;24.70;61.20;;;;;;4973373;28;20034;-87
2022/07/04 04:19:59;;;;;;;4.70;2.30;;;24.70;61.30;;;;;;4973518;28;20494;-86
2022/07/04 04:22:28;;;;;;;3.45;2.50;;;24.70;61.30;;;;;;4974765;28;20026;-86
2022/07/04 04:24:54;;;;;;;3.17;2.33;;;24.70;61.30;;;;;;4973638;28;20038;-87
2022/07/04 04:27:19;;;;;;;4.72;2.60;;;24.70;61.20;;;;;;4973501;28;20027;-88
2022/07/04 04:29:45;;;;;;;2.92;2.28;;;24.70;61.20;;;;;;4974895;28;20041;-88
2022/07/04 04:32:11;;;;;;;3.85;2.45;;;24.70;61.30;;;;;;4957868;28;20369;-87
2022/07/04 04:34:37;;;;;;;3.60;2.17;;;24.70;61.20;;;;;;4974903;28;20031;-87
2022/07/04 04:37:03;;;;;;;3.00;2.20;;;24.70;61.10;;;;;;4973750;28;20158;-87
2022/07/04 04:39:29;;;;;;;3.78;2.40;;;24.70;61.10;;;;;;4974133;28;20508;-87
2022/07/04 04:41:55;;;;;;;3.35;2.35;;;24.80;61.10;;;;;;4957506;28;20086;-87
2022/07/04 04:44:21;;;;;;;4.35;2.70;;;24.70;61.10;;;;;;4974381;28;20026;-86
2022/07/04 04:46:46;;;;;;;3.38;2.50;;;24.70;61.10;;;;;;4974102;28;20018;-87
2022/07/04 04:49:12;;;;;;;4.10;2.60;;;24.80;61.10;;;;;;4974676;28;20081;-88
2022/07/04 04:51:38;;;;;;;4.43;2.38;;;24.80;61.10;;;;;;4957139;28;20118;-87
2022/07/04 04:54:04;;;;;;;4.20;2.72;;;24.80;61.10;;;;;;4974451;28;20500;-86
2022/07/04 04:56:30;;;;;;;3.78;2.35;;;24.80;61.00;;;;;;4974032;28;20034;-87
2022/07/04 04:58:56;;;;;;;4.07;2.40;;;24.80;61.00;;;;;;4974117;28;20023;-86
2022/07/04 05:01:22;;;;;;;4.13;2.55;;;24.80;61.10;;;;;;4989285;28;20147;-86
2022/07/04 05:03:48;;;;;;;3.92;2.45;;;24.80;61.10;;;;;;4956861;28;20110;-88
2022/07/04 05:06:14;;;;;;;3.63;2.28;;;24.80;61.00;;;;;;4972710;28;20154;-87
2022/07/04 05:08:39;;;;;;;2.67;1.95;;;24.80;61.10;;;;;;4974101;28;20026;-85
2022/07/04 05:11:05;;;;;;;3.47;2.45;;;24.80;61.10;;;;;;4973976;28;20038;-85
2022/07/04 05:13:31;;;;;;;3.90;2.60;;;24.80;61.10;;;;;;4973845;28;20035;-85
2022/07/04 05:15:57;;;;;;;3.95;2.55;;;24.70;61.00;;;;;;4972590;28;20046;-86
2022/07/04 05:18:23;;;;;;;2.83;2.20;;;24.80;61.10;;;;;;4972673;28;20038;-86
2022/07/04 05:20:49;;;;;;;3.65;2.33;;;24.80;61.10;;;;;;4973793;28;20034;-86
2022/07/04 05:23:15;;;;;;;4.25;2.50;;;24.80;61.20;;;;;;4973752;28;20058;-86
2022/07/04 05:25:40;;;;;;;3.17;2.10;;;24.80;61.20;;;;;;4973561;28;20018;-86
2022/07/04 05:28:06;;;;;;;4.43;2.75;;;24.70;61.10;;;;;;4974039;28;20054;-85
2022/07/04 05:30:32;;;;;;;3.58;2.22;;;24.70;61.10;;;;;;4973523;28;20073;-85
2022/07/04 05:33:00;;;;;;;4.18;2.67;;;24.70;61.10;;;;;;4972487;28;20042;-85
2022/07/04 05:35:27;;;;;;;3.20;2.25;;;24.80;61.20;;;;;;4956013;28;20478;-85
2022/07/04 05:37:53;;;;;;;2.97;2.28;;;24.70;61.10;;;;;;4972133;28;20039;-86
2022/07/04 05:40:21;;;;;;;3.00;2.35;;;24.80;61.20;;;;;;4972384;28;20041;-86
2022/07/04 05:42:48;;;;;;;3.85;2.40;;;24.70;61.10;;;;;;4973426;28;20077;-86
2022/07/04 05:45:14;;;;;;;3.85;2.28;;;24.70;61.10;;;;;;4972055;28;20065;-85
2022/07/04 05:47:40;;;;;;;2.65;2.00;;;24.70;61.20;;;;;;4973298;28;20391;-86
2022/07/04 05:50:06;;;;;;;4.15;2.50;;;24.70;61.10;;;;;;4956223;28;20137;-86
2022/07/04 05:52:32;;;;;;;3.70;2.28;;;24.70;61.10;;;;;;4973243;28;20070;-86
2022/07/04 05:54:58;;;;;;;3.40;2.22;;;24.80;61.10;;;;;;4973321;28;20061;-86
2022/07/04 05:57:24;;;;;;;4.22;2.53;;;24.80;61.20;;;;;;4972060;28;20058;-86
2022/07/04 05:59:50;;;;;;;4.57;2.58;;;24.80;61.20;;;;;;4973350;28;20027;-86
2022/07/04 06:02:15;;;;;;;3.70;2.55;;;24.80;61.10;;;;;;4973458;28;20485;-86
2022/07/04 06:04:43;;;;;;;3.20;2.25;;;24.70;61.10;;;;;;4971593;28;20039;-80
2022/07/04 06:07:09;;;;;;;3.83;2.15;;;24.80;61.10;;;;;;4971767;28;20039;-84
2022/07/04 06:09:35;;;;;;;3.42;2.30;;;24.80;61.20;;;;;;4956062;28;20402;-84
2022/07/04 06:12:01;;;;;;;3.25;2.00;;;24.80;61.10;;;;;;4973119;28;20035;-83
2022/07/04 06:14:27;;;;;;;3.15;2.13;;;24.70;61.00;;;;;;4973021;28;20395;-85
2022/07/04 06:16:52;;;;;;;2.65;2.08;;;24.80;61.10;;;;;;4972988;28;20034;-83
2022/07/04 06:19:18;;;;;;;3.47;2.28;;;24.80;61.00;;;;;;4972946;28;20019;-83
2022/07/04 06:21:44;;;;;;;3.17;1.95;;;24.80;61.00;;;;;;4972848;28;20387;-83
2022/07/04 06:24:10;;;;;;;3.35;2.25;;;24.80;61.00;;;;;;4971639;28;20023;-83
2022/07/04 06:26:35;;;;;;;3.05;1.98;;;24.80;61.00;;;;;;4972625;28;20038;-83
2022/07/04 06:29:01;;;;;;;2.80;2.10;;;24.80;61.00;;;;;;4972956;28;20117;-83
2022/07/04 06:31:27;;;;;;;2.92;2.25;;;24.80;60.90;;;;;;4972970;28;20101;-83
2022/07/04 06:36:37;;;;;;;4.03;2.33;;;24.80;60.80;;;;;;4971281;28;20089;-83
2022/07/04 06:39:03;;;;;;;3.50;2.40;;;24.80;60.90;;;;;;4972945;28;20054;-83
2022/07/04 06:41:29;;;;;;;3.22;2.00;;;24.80;61.00;;;;;;4971559;28;20115;-83
2022/07/04 06:43:55;;;;;;;2.88;1.90;;;24.80;60.90;;;;;;4972779;28;20034;-82
2022/07/04 06:46:20;;;;;;;3.50;1.92;;;24.80;60.80;;;;;;4972269;28;20027;-83
2022/07/04 06:48:46;;;;;;;1.90;1.60;;;24.80;60.90;;;;;;4971510;28;20122;-83
2022/07/04 06:51:13;;;;;;;2.70;2.10;;;24.80;60.90;;;;;;4971640;28;20117;-83
2022/07/04 06:53:41;;;;;;;2.45;1.73;;;24.80;60.80;;;;;;4971712;28;20039;-82
2022/07/04 06:56:07;;;;;;;4.57;2.50;;;24.80;60.80;;;;;;4972383;28;20102;-83
2022/07/04 06:58:33;;;;;;;3.70;2.30;;;24.80;60.80;;;;;;4955401;28;20504;-83
2022/07/04 07:00:59;;;;;;;2.83;2.03;;;24.80;60.90;;;;;;4973430;28;20484;-83
2022/07/04 07:03:24;;;;;;;2.72;1.98;;;24.80;60.90;;;;;;4976454;28;20033;-82
2022/07/04 07:05:50;;;;;;;3.45;2.38;;;24.80;60.80;;;;;;4974418;28;20035;-83
2022/07/04 07:08:16;;;;;;;3.78;2.35;;;24.80;60.90;;;;;;4976073;28;20023;-83
2022/07/04 07:10:42;;;;;;;2.88;1.90;;;24.80;60.90;;;;;;4974960;28;20109;-83
2022/07/04 07:13:08;;;;;;;2.55;1.90;;;24.80;60.80;;;;;;4976056;28;20373;-83
2022/07/04 07:15:35;;;;;;;3.50;2.35;;;24.80;60.80;;;;;;4958450;28;20135;-83
2022/07/04 07:18:02;;;;;;;2.60;1.92;;;24.80;60.80;;;;;;4975916;28;20031;-83
2022/07/04 07:20:28;;;;;;;2.72;1.88;;;24.80;60.90;;;;;;4958673;28;20030;-83
2022/07/04 07:22:54;;;;;;;2.75;2.03;;;24.80;60.90;;;;;;4975868;28;20030;-83
2022/07/04 07:25:20;;;;;;;3.65;2.17;;;24.80;60.90;;;;;;4975777;28;20070;-83
2022/07/04 07:27:46;;;;;;;2.30;1.70;;;24.80;60.80;;;;;;4975494;28;20042;-83
2022/07/04 07:30:12;;;;;;;2.83;2.03;;;24.80;60.80;;;;;;4976165;28;20430;-83
2022/07/04 07:32:38;;;;;;;3.53;2.25;;;24.80;60.80;;;;;;4958807;28;20035;-82
2022/07/04 07:35:04;;;;;;;2.97;2.30;;;24.80;60.90;;;;;;4974406;28;20053;-83
2022/07/04 07:37:30;;;;;;;3.03;1.83;;;24.80;60.80;;;;;;4990531;28;20034;-83
2022/07/04 07:39:56;;;;;;;3.08;2.17;;;24.80;60.90;;;;;;4975656;28;20027;-83
2022/07/04 07:42:23;;;;;;;3.05;1.95;;;24.80;60.90;;;;;;4975468;28;20034;-83
2022/07/04 07:44:49;;;;;;;2.60;1.85;;;24.80;61.00;;;;;;4974159;28;20035;-83
2022/07/04 07:47:15;;;;;;;2.47;1.90;;;24.80;61.00;;;;;;4975052;28;20026;-83
2022/07/04 07:49:42;;;;;;;2.63;1.92;;;24.80;60.90;;;;;;4975297;28;20087;-82
2022/07/04 07:52:08;;;;;;;3.25;2.03;;;24.80;61.00;;;;;;4975358;28;20034;-83
2022/07/04 07:54:34;;;;;;;2.70;2.08;;;24.80;60.90;;;;;;4973970;28;20034;-83
2022/07/04 07:57:00;;;;;;;2.30;2.00;;;24.80;61.00;;;;;;4974894;28;20037;-83
2022/07/04 07:59:26;;;;;;;2.47;1.75;;;24.80;60.90;;;;;;4975202;28;20026;-83
2022/07/04 08:01:51;;;;;;;3.05;2.20;;;24.80;60.90;;;;;;4975228;28;20023;-82
2022/07/04 08:04:37;;;;;;;4.03;2.05;;;24.80;60.80;;;;;;4974934;28;20094;-83
2022/07/04 08:07:09;;;;;;;3.67;1.90;;;24.80;60.90;;;;;;4974596;28;20050;-83
2022/07/04 08:09:35;;;;;;;2.78;1.85;;;24.80;60.90;;;;;;4974857;28;20039;-83
2022/07/04 08:12:03;;;;;;;2.63;2.00;;;24.80;60.80;;;;;;4973061;28;20022;-82
2022/07/04 08:14:29;;;;;;;2.80;1.80;;;24.80;60.80;;;;;;4973065;28;20057;-82
2022/07/04 08:16:57;;;;;;;3.15;2.17;;;24.90;60.80;;;;;;4974659;28;20081;-83
2022/07/04 08:19:24;;;;;;;3.25;2.20;;;24.80;60.80;;;;;;4974798;28;20101;-83
2022/07/04 08:21:51;;;;;;;3.35;2.03;;;24.80;60.70;;;;;;4973726;28;20031;-83
2022/07/04 08:24:17;;;;;;;3.00;2.00;;;24.80;60.80;;;;;;4973638;28;20026;-82
2022/07/04 08:26:43;;;;;;;2.78;1.98;;;24.80;60.80;;;;;;4974393;28;20074;-81
2022/07/04 08:29:09;;;;;;;2.53;1.75;;;24.80;60.70;;;;;;4974813;28;20062;-82
2022/07/04 08:31:35;;;;;;;3.05;1.80;;;24.80;60.80;;;;;;4974560;28;20058;-81
2022/07/04 08:34:00;;;;;;;2.72;1.70;;;24.80;60.70;;;;;;4973138;28;20138;-79
2022/07/04 08:36:26;;;;;;;3.08;1.80;;;24.90;60.80;;;;;;4973237;28;20039;-79
2022/07/04 08:38:53;;;;;;;2.30;1.77;;;24.80;60.70;;;;;;4974265;28;20483;-80
2022/07/04 08:41:18;;;;;;;3.53;2.05;;;24.80;60.70;;;;;;4973969;28;20026;-86
2022/07/04 08:43:47;;;;;;;4.22;1.95;;;24.80;60.60;;;;;;4957499;28;20035;-88
2022/07/04 08:46:16;;;;;;;;;;;24.90;60.80;;;;;;4974881;28;20039;-89
2022/07/04 08:48:47;;;;;;;2.65;1.90;;;24.90;60.70;;;;;;4989813;28;19910;-88
2022/07/04 08:51:25;;;;;;;2.60;1.85;;;24.80;60.70;;;;;;4974579;28;20045;-87
2022/07/04 08:53:55;;;;;;;2.92;1.90;;;24.90;60.60;;;;;;4973113;28;20148;-86
2022/07/04 08:59:08;;;;;;;3.05;1.73;;;24.90;60.80;;;;;;4975064;28;20074;-88
2022/07/04 09:01:34;;;;;;;3.05;1.70;;;24.90;60.60;;;;;;4974915;28;20113;-90
2022/07/04 09:04:01;;;;;;;2.75;2.08;;;24.90;60.70;;;;;;4973522;28;20030;-87
2022/07/04 09:06:28;;;;;;;2.58;1.67;;;24.90;60.80;;;;;;4957704;28;20035;-89
2022/07/04 09:08:54;;;;;;;2.90;2.05;;;24.90;60.70;;;;;;4974645;28;20026;-88
2022/07/04 09:11:21;;;;;;;4.30;2.00;;;24.90;60.70;;;;;;4974844;28;20506;-88
2022/07/04 09:13:48;;;;;;;2.83;1.75;;;24.90;60.80;;;;;;4973749;28;20042;-88
2022/07/04 09:16:14;;;;;;;2.83;1.60;;;24.90;60.60;;;;;;4973979;28;20031;-88
2022/07/04 09:18:39;;;;;;;2.67;1.60;;;24.90;60.80;;;;;;4974335;28;20178;-86
2022/07/04 09:21:07;;;;;;;2.72;1.75;;;24.90;60.70;;;;;;4974535;28;20027;-88
2022/07/04 09:23:38;;;;;;;2.92;1.77;;;24.90;60.60;;;;;;4974251;28;20062;-88
2022/07/04 09:26:14;;;;;;;2.80;1.73;;;24.90;60.70;;;;;;4974485;28;20030;-87
2022/07/04 09:28:49;;;;;;;2.63;1.95;;;24.90;60.60;;;;;;4974199;28;20102;-88
2022/07/04 09:31:24;;;;;;;2.47;1.80;;;24.90;60.60;;;;;;4974381;28;20035;-88
2022/07/04 09:33:55;;;;;;;2.17;1.60;;;24.90;60.80;;;;;;4974186;28;20398;-87
2022/07/04 09:36:29;;;;;;;2.45;1.75;;;24.90;60.70;;;;;;4974012;28;20023;-89
2022/07/04 09:39:12;;;;;;;2.22;1.67;;;24.90;60.70;;;;;;4972888;28;20039;-87
2022/07/04 09:41:55;;;;;;;3.13;1.88;;;24.90;60.60;;;;;;4989379;28;20058;-87
2022/07/04 09:44:22;;;;;;;2.75;1.92;;;25.00;60.60;;;;;;4974920;28;20023;-88
2022/07/04 09:46:48;;;;;;;2.50;1.77;;;24.90;60.50;;;;;;4958364;28;20023;-88
2022/07/04 09:49:14;;;;;;;2.80;1.90;;;25.00;60.70;;;;;;4977496;28;20063;-90
2022/07/04 09:51:45;;;;;;;2.10;1.73;;;24.90;60.50;;;;;;4979123;28;20077;-90
2022/07/04 09:54:27;;;;;;;2.55;1.98;;;24.90;60.60;;;;;;4982155;28;20050;-88
2022/07/04 09:56:55;;;;;;;3.05;1.80;;;24.90;60.60;;;;;;4979739;28;20038;-90
2022/07/04 09:59:22;;;;;;;2.88;1.83;;;24.90;60.70;;;;;;4977093;28;20035;-88
2022/07/04 10:01:49;;;;;;;2.75;1.98;;;24.90;60.70;;;;;;4945868;28;20098;-89
2022/07/04 10:04:15;;;;;;;1.95;1.58;;;24.90;60.70;;;;;;4977908;28;20038;-88
2022/07/04 10:06:43;;;;;;;2.35;1.52;;;24.90;60.60;;;;;;4977923;28;20360;-88
2022/07/04 10:09:17;;;;;;;2.30;1.70;;;24.90;60.70;;;;;;4947170;28;20559;-88
2022/07/04 10:11:46;;;;;;;2.67;1.48;;;24.90;60.60;;;;;;4980071;28;20484;-89
2022/07/04 10:14:13;;;;;;;2.60;1.88;;;24.90;60.60;;;;;;4947660;28;20062;-89
2022/07/04 10:16:40;;;;;;;3.20;1.83;;;24.90;60.70;;;;;;4974475;28;20042;-88
2022/07/04 10:19:08;;;;;;;2.03;1.50;;;24.90;60.60;;;;;;4988378;28;20110;-88
2022/07/04 10:21:34;;;;;;;2.72;1.85;;;24.90;60.70;;;;;;4973198;28;20038;-88
2022/07/04 10:24:02;;;;;;;2.45;1.60;;;24.90;60.60;;;;;;4973208;28;20051;-87
2022/07/04 10:26:29;;;;;;;2.85;1.73;;;24.90;60.70;;;;;;4971896;28;20038;-87
2022/07/04 10:28:56;;;;;;;2.40;1.80;;;24.90;60.70;;;;;;4971918;28;20038;-86
2022/07/04 10:31:25;;;;;;;2.42;1.70;;;24.80;60.70;;;;;;4972818;28;20033;-85
2022/07/04 10:33:54;;;;;;;2.75;1.75;;;24.90;60.80;;;;;;4972959;28;20137;-85
2022/07/04 10:36:21;;;;;;;2.53;1.77;;;24.90;60.70;;;;;;4972674;28;20503;-85
2022/07/04 10:38:53;;;;;;;2.85;1.70;;;24.80;60.80;;;;;;4976895;28;20422;-87
2022/07/04 10:41:21;;;;;;;2.15;1.60;;;24.80;60.70;;;;;;4975754;28;20027;-88
2022/07/04 10:43:59;;;;;;;2.25;1.77;;;24.90;60.70;;;;;;4976674;28;20038;-86
2022/07/04 10:46:31;;;;;;;2.67;1.85;;;24.90;60.80;;;;;;4975184;28;20484;-87
2022/07/04 10:49:01;;;;;;;2.20;1.58;;;24.90;60.70;;;;;;4975571;28;20061;-87
2022/07/04 10:51:43;;;;;;;2.45;1.75;;;24.90;60.70;;;;;;4976999;28;20479;-87
2022/07/04 10:54:33;;;;;;;2.72;1.70;;;24.90;60.70;;;;;;4976503;28;20035;-88
2022/07/04 10:57:15;;;;;;;2.10;1.63;;;24.90;60.80;;;;;;4976093;28;20476;-85
2022/07/04 10:59:43;;;;;;;1.90;1.50;;;24.90;60.70;;;;;;4975645;28;20373;-85
2022/07/04 11:02:13;;;;;;;2.30;1.77;;;24.90;60.70;;;;;;4976528;28;20073;-85
2022/07/04 11:04:48;;;;;;;;;;;24.80;60.70;;;;;;4976655;28;20033;-85
2022/07/04 11:07:44;;;;;;;2.53;1.77;;;24.90;60.70;;;;;;4975998;28;19914;-85
2022/07/04 11:10:12;;;;;;;2.60;1.50;;;24.90;60.70;;;;;;4967771;28;20063;-85
2022/07/04 11:12:53;;;;;;;1.90;1.58;;;24.90;60.70;;;;;;4976718;28;20034;-85
2022/07/04 11:15:41;;;;;;;3.42;1.70;;;24.90;60.70;;;;;;4975866;28;20034;-85
2022/07/04 11:18:12;;;;;;;2.50;1.55;;;24.90;60.70;;;;;;4968620;28;20065;-85
2022/07/04 11:20:43;;;;;;;2.53;1.75;;;24.90;60.70;;;;;;4976060;28;20031;-85
2022/07/04 11:23:11;;;;;;;4.20;1.90;;;24.90;60.70;;;;;;4991104;28;20027;-85
2022/07/04 11:25:39;;;;;;;2.08;1.48;;;24.90;60.70;;;;;;4990539;28;20068;-85
2022/07/04 11:28:24;;;;;;;2.50;1.42;;;24.90;61.20;;;;;;4975931;28;20030;-85
2022/07/04 11:30:55;;;;;;;2.13;1.55;;;24.90;60.60;;;;;;4976016;28;20054;-85
2022/07/04 11:33:27;;;;;;;2.03;1.50;;;24.90;60.70;;;;;;4975816;28;20023;-85
2022/07/04 11:36:14;;;;;;;3.25;1.80;;;24.90;60.70;;;;;;4975477;28;20106;-85
2022/07/04 11:38:55;;;;;;;2.30;1.55;;;24.90;60.70;;;;;;4975705;28;20391;-85
2022/07/04 11:47:16;;;;;;;2.90;1.75;;;24.90;60.70;;;;;;4975105;28;20122;-85
2022/07/04 11:49:50;;;;;;;2.85;1.90;;;24.90;60.60;;;;;;4974393;28;20084;-85
2022/07/04 11:52:22;;;;;;;2.03;1.40;;;24.90;60.60;;;;;;4974352;28;20023;-85
2022/07/04 11:54:48;;;;;;;2.55;1.83;;;24.90;60.70;;;;;;4975499;28;20019;-85
2022/07/04 11:57:24;;;;;;;2.97;1.63;;;24.90;60.70;;;;;;4974841;28;20019;-85
2022/07/04 11:59:59;;;;;;;3.00;1.60;;;24.90;60.70;;;;;;4957723;28;20495;-85
2022/07/04 12:02:26;;;;;;;2.63;1.80;;;24.90;60.80;;;;;;4974148;28;20031;-85
2022/07/04 12:04:53;;;;;;;2.13;1.48;;;24.90;60.80;;;;;;4973939;28;20031;-86
2022/07/04 12:07:22;;;;;;;3.20;1.30;;;24.90;60.80;;;;;;4974889;28;20138;-86
2022/07/04 12:09:49;;;;;;;2.10;1.50;;;24.90;60.80;;;;;;4957708;28;20475;-86
2022/07/04 12:12:17;;;;;;;1.77;1.25;;;24.90;60.80;;;;;;4974056;28;20463;-85
2022/07/04 12:15:04;;;;;;;2.65;1.60;;;24.90;60.80;;;;;;4973989;28;20154;-85
2022/07/04 12:17:38;;;;;;;2.28;1.48;;;24.90;60.80;;;;;;4974547;28;20075;-86
2022/07/04 12:20:20;;;;;;;1.92;1.40;;;24.80;60.70;;;;;;4957641;28;20034;-85
2022/07/04 12:22:54;;;;;;;2.35;1.58;;;24.90;60.80;;;;;;4973760;28;20054;-85
2022/07/04 12:25:38;;;;;;;2.80;1.70;;;24.80;60.80;;;;;;4974742;28;20026;-84
2022/07/04 12:28:15;;;;;;;2.10;1.60;;;24.90;60.80;;;;;;4973339;28;20500;-84
2022/07/04 12:30:53;;;;;;;1.70;1.45;;;24.80;60.80;;;;;;4989661;28;20511;-84
2022/07/04 12:33:21;;;;;;;2.00;1.40;;;24.80;60.80;;;;;;4974744;28;20026;-84
2022/07/04 12:36:12;;;;;;;2.08;1.70;;;24.80;60.80;;;;;;4974252;28;20038;-84
2022/07/04 12:38:41;;;;;;;3.55;1.65;;;24.80;60.80;;;;;;4973080;28;20039;-84
2022/07/04 12:41:11;;;;;;;1.98;1.42;;;24.80;60.70;;;;;;4973256;28;20624;-84
2022/07/04 12:43:43;;;;;;;2.13;1.48;;;24.80;60.70;;;;;;4974458;28;20031;-84
2022/07/04 12:46:13;;;;;;;3.28;1.35;;;24.80;60.70;;;;;;4973314;28;20060;-84
2022/07/04 12:48:40;;;;;;;2.13;1.42;;;24.90;60.80;;;;;;4974488;28;20059;-84
2022/07/04 12:51:18;;;;;;;2.30;1.63;;;24.80;60.70;;;;;;4974227;28;20133;-85
2022/07/04 12:53:47;;;;;;;2.25;1.60;;;24.90;60.80;;;;;;4974285;28;20038;-85
2022/07/04 12:56:32;;;;;;;1.75;1.42;;;24.80;60.80;;;;;;4973839;28;20368;-85
2022/07/04 12:59:07;;;;;;;1.98;1.55;;;24.90;60.70;;;;;;4973456;28;20065;-85
2022/07/04 13:01:33;;;;;;;1.60;1.40;;;24.90;60.70;;;;;;4974229;28;20026;-85
2022/07/04 13:04:00;;;;;;;1.77;1.50;;;24.90;60.70;;;;;;4974152;28;20510;-84
2022/07/04 13:06:26;;;;;;;2.05;1.65;;;24.90;60.60;;;;;;4972545;28;20476;-84
2022/07/04 13:08:53;;;;;;;1.70;1.33;;;24.90;60.70;;;;;;4973931;28;20471;-84